createdAt,value
2019-05-19T00:00:05.353Z,72.02
2019-05-19T00:02:32.358Z,71.92
2019-05-19T00:04:59.347Z,71.85
2019-05-19T00:07:26.409Z,71.22
2019-05-19T00:09:53.432Z,71.56
2019-05-19T00:12:20.439Z,71.38
2019-05-19T00:14:47.466Z,70.59
2019-05-19T00:17:14.466Z,71.01
2019-05-19T00:19:41.510Z,70.86
2019-05-19T00:22:08.520Z,70.55
2019-05-19T00:24:35.512Z,70.46
2019-05-19T00:27:02.641Z,70.30
2019-05-19T00:29:29.663Z,70.16
2019-05-19T00:31:56.775Z,70.13
2019-05-19T00:34:23.847Z,70.05
2019-05-19T00:36:50.857Z,70.19
2019-05-19T00:39:17.889Z,70.42
2019-05-19T00:41:44.891Z,70.83
2019-05-19T00:44:11.925Z,70.88
2019-05-19T00:46:38.997Z,70.94
2019-05-19T00:49:05.996Z,71.54
2019-05-19T00:51:33.523Z,71.51
2019-05-19T00:54:00.561Z,71.45
2019-05-19T00:56:27.778Z,71.52
2019-05-19T00:58:57.033Z,72.29
2019-05-19T01:01:24.047Z,72.10
2019-05-19T01:03:51.061Z,71.79
2019-05-19T01:06:18.104Z,71.66
2019-05-19T01:08:45.115Z,71.56
2019-05-19T01:11:12.154Z,71.32
2019-05-19T01:13:39.180Z,71.22
2019-05-19T01:16:06.193Z,71.26
2019-05-19T01:18:33.202Z,71.25
2019-05-19T01:21:00.454Z,71.04
2019-05-19T01:23:27.520Z,71.20
2019-05-19T01:25:54.573Z,71.42
2019-05-19T01:28:21.624Z,71.39
2019-05-19T01:30:48.691Z,71.06
2019-05-19T01:33:15.730Z,71.14
2019-05-19T01:35:42.765Z,71.21
2019-05-19T01:38:09.784Z,71.35
2019-05-19T01:40:36.790Z,71.40
2019-05-19T01:43:03.815Z,71.32
2019-05-19T01:45:30.826Z,71.22
2019-05-19T01:47:57.834Z,71.57
2019-05-19T01:50:24.887Z,72.01
2019-05-19T01:52:51.916Z,72.25
2019-05-19T01:55:18.923Z,71.99
2019-05-19T01:57:45.949Z,71.69
2019-05-19T02:00:13.181Z,71.91
2019-05-19T02:02:40.231Z,71.87
2019-05-19T02:05:07.809Z,72.07
2019-05-19T02:07:34.829Z,71.99
2019-05-19T02:10:02.213Z,72.08
2019-05-19T02:12:29.448Z,72.60
2019-05-19T02:14:56.460Z,72.51
2019-05-19T02:17:23.513Z,72.74
2019-05-19T02:19:50.553Z,73.02
2019-05-19T02:22:17.574Z,73.30
2019-05-19T02:24:44.617Z,73.09
2019-05-19T02:27:11.660Z,73.78
2019-05-19T02:29:38.682Z,73.81
2019-05-19T02:32:05.755Z,73.74
2019-05-19T02:34:32.903Z,74.11
2019-05-19T02:36:59.877Z,74.23
2019-05-19T02:39:26.906Z,74.45
2019-05-19T02:41:55.684Z,74.85
2019-05-19T02:44:23.816Z,74.73
2019-05-19T02:46:52.148Z,74.51
2019-05-19T02:49:19.928Z,74.47
2019-05-19T02:51:49.248Z,74.18
2019-05-19T02:54:18.623Z,74.12
2019-05-19T02:56:47.237Z,74.14
2019-05-19T02:59:15.270Z,74.02
2019-05-19T03:02:06.874Z,73.87
2019-05-19T03:04:35.077Z,73.83
2019-05-19T03:07:02.163Z,74.13
2019-05-19T03:09:29.170Z,74.75
2019-05-19T03:11:56.173Z,75.33
2019-05-19T03:14:23.210Z,75.65
2019-05-19T03:16:50.229Z,75.45
2019-05-19T03:19:17.251Z,75.46
2019-05-19T03:21:44.283Z,75.55
2019-05-19T03:24:11.317Z,75.53
2019-05-19T03:26:38.350Z,76.17
2019-05-19T03:29:05.695Z,76.58
2019-05-19T03:31:40.212Z,76.15
2019-05-19T03:34:07.295Z,75.98
2019-05-19T03:36:34.335Z,75.87
2019-05-19T03:39:01.365Z,76.75
2019-05-19T03:41:28.485Z,77.41
2019-05-19T03:43:55.545Z,77.65
2019-05-19T03:46:22.562Z,77.70
2019-05-19T03:48:49.580Z,77.76
2019-05-19T03:51:30.395Z,77.51
2019-05-19T03:53:45.600Z,77.17
2019-05-19T03:56:12.642Z,76.83
2019-05-19T03:58:39.663Z,76.74
2019-05-19T04:01:06.794Z,76.93
2019-05-19T04:03:33.825Z,76.82
2019-05-19T04:06:00.881Z,76.73
2019-05-19T04:08:27.925Z,76.66
2019-05-19T04:10:54.959Z,76.60
2019-05-19T04:13:22.004Z,76.77
2019-05-19T04:15:49.169Z,76.70
2019-05-19T04:18:16.184Z,77.00
2019-05-19T04:20:43.215Z,77.09
2019-05-19T04:23:10.285Z,77.56
2019-05-19T04:25:37.303Z,77.90
2019-05-19T04:28:04.314Z,78.06
2019-05-19T04:30:31.372Z,78.15
2019-05-19T04:32:58.449Z,78.19
2019-05-19T04:35:25.487Z,78.04
2019-05-19T04:37:52.514Z,78.13
2019-05-19T04:40:19.564Z,78.53
2019-05-19T04:42:46.585Z,78.51
2019-05-19T04:45:13.693Z,78.50
2019-05-19T04:47:40.723Z,78.15
2019-05-19T04:50:07.738Z,78.47
2019-05-19T04:52:34.744Z,78.47
2019-05-19T04:55:01.932Z,78.77
2019-05-19T04:57:28.952Z,78.43
2019-05-19T04:59:56.001Z,78.23
2019-05-19T05:02:23.088Z,78.73
2019-05-19T05:04:50.117Z,78.43
2019-05-19T05:07:17.168Z,78.27
2019-05-19T05:09:44.219Z,77.91
2019-05-19T05:12:11.662Z,77.70
2019-05-19T05:14:38.674Z,77.87
2019-05-19T05:17:05.698Z,77.78
2019-05-19T05:19:32.701Z,77.49
2019-05-19T05:21:59.732Z,78.01
2019-05-19T05:24:28.686Z,77.70
2019-05-19T05:26:55.732Z,77.54
2019-05-19T05:29:22.773Z,77.18
2019-05-19T05:31:49.820Z,77.04
2019-05-19T05:34:16.880Z,77.14
2019-05-19T05:36:43.894Z,76.80
2019-05-19T05:39:10.939Z,76.83
2019-05-19T05:41:37.943Z,76.70
2019-05-19T05:44:05.055Z,76.60
2019-05-19T05:46:32.077Z,76.68
2019-05-19T05:48:59.093Z,77.19
2019-05-19T05:51:26.122Z,77.62
2019-05-19T05:53:53.163Z,77.08
2019-05-19T05:56:20.189Z,76.85
2019-05-19T05:58:47.231Z,77.17
2019-05-19T06:01:14.256Z,77.26
2019-05-19T06:03:41.320Z,76.96
2019-05-19T06:06:08.392Z,76.38
2019-05-19T06:08:35.427Z,76.47
2019-05-19T06:11:02.469Z,75.97
2019-05-19T06:13:29.571Z,76.14
2019-05-19T06:15:56.627Z,75.62
2019-05-19T06:18:24.027Z,75.40
2019-05-19T06:20:51.191Z,75.02
2019-05-19T06:23:18.239Z,75.64
2019-05-19T06:25:45.293Z,74.67
2019-05-19T06:28:12.383Z,74.65
2019-05-19T06:30:39.480Z,73.93
2019-05-19T06:33:06.532Z,73.23
2019-05-19T06:35:33.622Z,73.72
2019-05-19T06:38:00.653Z,73.05
2019-05-19T06:40:27.717Z,72.86
2019-05-19T06:42:54.975Z,72.54
2019-05-19T06:45:22.021Z,72.07
2019-05-19T06:47:49.280Z,71.33
2019-05-19T06:50:19.131Z,72.23
2019-05-19T06:52:46.221Z,71.96
2019-05-19T06:55:13.804Z,70.55
2019-05-19T06:57:40.865Z,70.51
2019-05-19T07:00:08.347Z,71.07
2019-05-19T07:02:35.389Z,70.61
2019-05-19T07:05:02.747Z,69.34
2019-05-19T07:07:29.776Z,69.28
2019-05-19T07:09:58.763Z,69.02
2019-05-19T07:12:25.808Z,69.16
2019-05-19T07:14:52.863Z,68.95
2019-05-19T07:17:19.939Z,69.36
2019-05-19T07:19:46.999Z,69.10
2019-05-19T07:22:14.066Z,69.32
2019-05-19T07:24:41.162Z,68.24
2019-05-19T07:27:08.338Z,68.20
2019-05-19T07:29:35.374Z,67.78
2019-05-19T07:32:02.521Z,67.37
2019-05-19T07:34:29.692Z,67.00
2019-05-19T07:37:02.856Z,66.67
2019-05-19T07:39:32.427Z,66.87
2019-05-19T07:41:59.501Z,65.56
2019-05-19T07:44:26.508Z,65.68
2019-05-19T07:46:53.835Z,65.12
2019-05-19T07:49:20.893Z,65.40
2019-05-19T07:51:47.900Z,64.32
2019-05-19T07:54:14.974Z,64.38
2019-05-19T07:56:42.025Z,64.67
2019-05-19T07:59:09.066Z,64.25
2019-05-19T08:01:36.180Z,64.10
2019-05-19T08:04:03.257Z,64.65
2019-05-19T08:06:30.322Z,65.20
2019-05-19T08:08:57.435Z,63.92
2019-05-19T08:11:27.225Z,63.73
2019-05-19T08:13:54.326Z,63.36
2019-05-19T08:16:21.397Z,62.21
2019-05-19T08:18:48.492Z,62.83
2019-05-19T08:21:15.539Z,61.91
2019-05-19T08:23:58.535Z,63.02
2019-05-19T08:26:11.582Z,62.71
2019-05-19T08:28:38.679Z,63.17
2019-05-19T08:31:05.745Z,63.65
2019-05-19T08:33:33.199Z,63.24
2019-05-19T08:36:00.318Z,65.19
2019-05-19T08:38:30.382Z,64.89
2019-05-19T08:40:57.434Z,63.52
2019-05-19T08:43:24.481Z,64.05
2019-05-19T08:45:55.841Z,65.57
2019-05-19T08:48:23.009Z,66.61
2019-05-19T08:50:50.035Z,67.04
2019-05-19T08:53:17.126Z,66.70
2019-05-19T08:55:44.164Z,67.97
2019-05-19T08:58:11.233Z,68.46
2019-05-19T09:00:38.755Z,68.66
2019-05-19T09:03:06.034Z,69.42
2019-05-19T09:05:33.127Z,68.90
2019-05-19T09:08:00.270Z,69.43
2019-05-19T09:10:27.355Z,69.19
2019-05-19T09:12:54.435Z,70.66
2019-05-19T09:15:21.531Z,70.00
2019-05-19T09:17:48.581Z,69.80
2019-05-19T09:20:15.856Z,70.25
2019-05-19T09:22:42.954Z,70.38
2019-05-19T09:25:10.047Z,70.45
2019-05-19T09:27:37.125Z,70.19
2019-05-19T09:30:05.141Z,70.70
2019-05-19T09:32:32.249Z,71.13
2019-05-19T09:35:02.376Z,70.44
2019-05-19T09:37:29.444Z,70.15
2019-05-19T09:39:56.513Z,69.91
2019-05-19T09:42:23.614Z,69.21
2019-05-19T09:44:50.712Z,68.84
2019-05-19T09:47:17.786Z,69.11
2019-05-19T09:49:44.853Z,69.77
2019-05-19T09:52:16.540Z,69.48
2019-05-19T09:54:45.090Z,69.82
2019-05-19T09:57:10.229Z,69.25
2019-05-19T09:59:37.313Z,68.79
2019-05-19T10:02:04.345Z,68.89
2019-05-19T10:04:31.505Z,68.49
2019-05-19T10:06:58.537Z,68.93
2019-05-19T10:09:55.254Z,68.16
2019-05-19T10:12:22.318Z,68.46
2019-05-19T10:14:49.363Z,69.98
2019-05-19T10:17:16.431Z,70.39
2019-05-19T10:19:43.486Z,70.30
2019-05-19T10:22:10.589Z,70.39
2019-05-19T10:24:37.734Z,70.71
2019-05-19T10:27:04.783Z,70.30
2019-05-19T10:29:31.825Z,70.17
2019-05-19T10:31:58.876Z,70.45
2019-05-19T10:34:26.005Z,70.94
2019-05-19T10:36:53.144Z,71.94
2019-05-19T10:39:20.240Z,72.20
2019-05-19T10:41:47.265Z,71.74
2019-05-19T10:44:14.330Z,72.18
2019-05-19T10:46:41.365Z,73.66
2019-05-19T10:49:08.379Z,73.94
2019-05-19T10:51:35.443Z,74.17
2019-05-19T10:54:02.507Z,73.99
2019-05-19T10:56:29.576Z,73.48
2019-05-19T10:58:56.650Z,73.42
2019-05-19T11:01:23.689Z,73.92
2019-05-19T11:03:50.736Z,73.62
2019-05-19T11:06:17.787Z,73.89
2019-05-19T11:08:44.819Z,74.34
2019-05-19T11:11:11.854Z,74.47
2019-05-19T11:13:38.958Z,74.27
2019-05-19T11:16:05.972Z,74.15
2019-05-19T11:18:33.031Z,73.94
2019-05-19T11:21:00.138Z,74.08
2019-05-19T11:23:27.286Z,74.20
2019-05-19T11:25:54.362Z,74.77
2019-05-19T11:28:21.408Z,74.72
2019-05-19T11:30:48.417Z,74.77
2019-05-19T11:33:15.438Z,74.23
2019-05-19T11:35:42.488Z,74.17
2019-05-19T11:38:09.612Z,74.78
2019-05-19T11:40:36.637Z,75.25
2019-05-19T11:43:03.725Z,75.29
2019-05-19T11:45:30.766Z,75.42
2019-05-19T11:47:57.779Z,74.31
2019-05-19T11:50:24.821Z,73.73
2019-05-19T11:52:51.857Z,74.28
2019-05-19T11:55:18.871Z,73.70
2019-05-19T11:57:45.918Z,73.66
2019-05-19T12:00:13.376Z,73.48
2019-05-19T12:02:40.449Z,74.06
2019-05-19T12:05:07.759Z,72.89
2019-05-19T12:07:34.799Z,73.26
2019-05-19T12:10:01.849Z,73.48
2019-05-19T12:12:28.895Z,73.49
2019-05-19T12:14:55.934Z,73.45
2019-05-19T12:17:22.943Z,74.42
2019-05-19T12:19:49.987Z,72.64
2019-05-19T12:22:17.003Z,72.82
2019-05-19T12:24:44.127Z,72.77
2019-05-19T12:27:11.194Z,73.22
2019-05-19T12:29:38.222Z,72.52
2019-05-19T12:32:05.279Z,72.85
2019-05-19T12:34:32.400Z,72.56
2019-05-19T12:36:59.493Z,72.31
2019-05-19T12:39:26.603Z,72.11
2019-05-19T12:41:53.666Z,72.12
2019-05-19T12:44:20.685Z,72.33
2019-05-19T12:46:47.764Z,71.86
2019-05-19T12:49:14.841Z,71.64
2019-05-19T12:51:41.887Z,71.63
2019-05-19T12:54:08.940Z,71.70
2019-05-19T12:56:39.824Z,71.90
2019-05-19T12:59:04.947Z,71.52
2019-05-19T13:01:31.975Z,71.66
2019-05-19T13:03:59.016Z,71.78
2019-05-19T13:06:26.045Z,71.63
2019-05-19T13:08:53.063Z,71.29
2019-05-19T13:11:20.209Z,70.96
2019-05-19T13:13:47.235Z,71.78
2019-05-19T13:16:14.282Z,71.88
2019-05-19T13:18:41.363Z,72.91
2019-05-19T13:21:08.416Z,72.10
2019-05-19T13:23:35.456Z,72.07
2019-05-19T13:26:02.533Z,71.61
2019-05-19T13:28:29.596Z,72.45
2019-05-19T13:30:56.613Z,72.33
2019-05-19T13:33:23.676Z,73.01
2019-05-19T13:35:50.775Z,71.95
2019-05-19T13:38:17.878Z,71.91
2019-05-19T13:40:44.931Z,71.29
2019-05-19T13:43:11.976Z,71.38
2019-05-19T13:45:39.013Z,70.86
2019-05-19T13:48:06.143Z,72.12
2019-05-19T13:50:33.173Z,71.89
2019-05-19T13:53:00.199Z,71.52
2019-05-19T13:55:27.242Z,71.27
2019-05-19T13:57:54.244Z,71.51
2019-05-19T14:00:21.369Z,71.78
2019-05-19T14:02:48.436Z,71.80
2019-05-19T14:05:15.457Z,71.11
2019-05-19T14:07:42.514Z,70.69
2019-05-19T14:10:09.671Z,70.49
2019-05-19T14:12:36.687Z,71.09
2019-05-19T14:15:04.379Z,71.15
2019-05-19T14:17:31.567Z,71.88
2019-05-19T14:19:58.576Z,71.15
2019-05-19T14:22:25.621Z,71.51
2019-05-19T14:24:52.636Z,71.86
2019-05-19T14:27:29.169Z,72.60
2019-05-19T14:29:48.725Z,72.57
2019-05-19T14:32:15.738Z,73.32
2019-05-19T14:34:42.768Z,73.35
2019-05-19T14:37:09.809Z,74.20
2019-05-19T14:39:36.835Z,74.36
2019-05-19T14:42:07.660Z,74.23
2019-05-19T14:44:34.689Z,73.75
2019-05-19T14:47:01.726Z,74.96
2019-05-19T14:49:28.813Z,73.85
2019-05-19T14:51:55.816Z,73.68
2019-05-19T14:54:22.832Z,74.49
2019-05-19T14:56:49.902Z,74.25
2019-05-19T14:59:16.924Z,74.17
2019-05-19T15:01:43.967Z,74.39
2019-05-19T15:04:10.990Z,73.97
2019-05-19T15:06:38.000Z,74.23
2019-05-19T15:09:05.803Z,74.22
2019-05-19T15:11:32.819Z,74.23
2019-05-19T15:13:59.830Z,74.65
2019-05-19T15:16:27.733Z,74.83
2019-05-19T15:18:54.758Z,75.20
2019-05-19T15:21:21.793Z,74.76
2019-05-19T15:23:48.825Z,74.71
2019-05-19T15:26:15.863Z,74.82
2019-05-19T15:28:42.867Z,74.67
2019-05-19T15:31:09.908Z,74.85
2019-05-19T15:33:38.670Z,75.02
2019-05-19T15:36:06.337Z,75.29
2019-05-19T15:38:33.609Z,74.87
2019-05-19T15:41:00.776Z,75.81
2019-05-19T15:43:27.799Z,75.46
2019-05-19T15:45:54.811Z,76.15
2019-05-19T15:48:21.823Z,76.78
2019-05-19T15:50:48.992Z,76.41
2019-05-19T15:53:16.009Z,76.38
2019-05-19T15:55:43.067Z,76.64
2019-05-19T15:58:16.497Z,76.02
2019-05-19T16:00:39.055Z,76.00
2019-05-19T16:03:06.126Z,76.07
2019-05-19T16:05:33.141Z,76.25
2019-05-19T16:08:00.220Z,75.87
2019-05-19T16:10:27.346Z,76.18
2019-05-19T16:12:54.318Z,76.48
2019-05-19T16:15:22.396Z,76.29
2019-05-19T16:17:49.412Z,76.77
2019-05-19T16:20:16.773Z,75.80
2019-05-19T16:22:43.785Z,75.97
2019-05-19T16:25:11.202Z,75.80
2019-05-19T16:27:38.253Z,75.58
2019-05-19T16:30:05.812Z,76.68
2019-05-19T16:32:32.822Z,76.25
2019-05-19T16:34:59.858Z,76.25
2019-05-19T16:37:26.931Z,76.51
2019-05-19T16:39:53.956Z,76.48
2019-05-19T16:42:20.996Z,76.15
2019-05-19T16:44:48.030Z,75.86
2019-05-19T16:47:15.063Z,75.86
2019-05-19T16:49:42.176Z,75.68
2019-05-19T16:52:09.219Z,75.69
2019-05-19T16:54:38.750Z,75.56
2019-05-19T16:57:05.823Z,75.58
2019-05-19T16:59:32.860Z,75.73
2019-05-19T17:01:59.902Z,76.45
2019-05-19T17:04:26.956Z,76.84
2019-05-19T17:06:54.138Z,76.89
2019-05-19T17:09:21.209Z,77.28
2019-05-19T17:11:48.249Z,78.00
2019-05-19T17:14:15.321Z,77.52
2019-05-19T17:16:43.199Z,77.50
2019-05-19T17:19:10.249Z,77.64
2019-05-19T17:21:37.276Z,78.23
2019-05-19T17:24:04.344Z,78.43
2019-05-19T17:26:31.419Z,78.31
2019-05-19T17:29:00.958Z,78.67
2019-05-19T17:31:27.422Z,78.46
2019-05-19T17:33:54.471Z,78.42
2019-05-19T17:36:21.552Z,77.96
2019-05-19T17:38:48.623Z,77.72
2019-05-19T17:41:15.656Z,78.05
2019-05-19T17:43:42.762Z,78.99
2019-05-19T17:46:09.777Z,78.63
2019-05-19T17:48:36.803Z,79.06
2019-05-19T17:51:03.967Z,78.86
2019-05-19T17:53:31.024Z,79.24
2019-05-19T17:55:58.837Z,79.13
2019-05-19T17:58:26.947Z,78.22
2019-05-19T18:00:53.975Z,78.38
2019-05-19T18:03:21.759Z,78.45
2019-05-19T18:05:48.800Z,78.76
2019-05-19T18:08:15.801Z,78.60
2019-05-19T18:10:42.858Z,78.68
2019-05-19T18:13:09.940Z,78.51
2019-05-19T18:15:36.985Z,78.30
2019-05-19T18:18:04.030Z,78.17
2019-05-19T18:20:33.931Z,77.97
2019-05-19T18:23:00.938Z,78.31
2019-05-19T18:25:28.007Z,77.91
2019-05-19T18:27:55.274Z,77.58
2019-05-19T18:30:22.318Z,77.82
2019-05-19T18:32:49.370Z,78.02
2019-05-19T18:35:16.373Z,77.78
2019-05-19T18:37:43.466Z,77.85
2019-05-19T18:40:10.516Z,77.83
2019-05-19T18:42:37.538Z,77.70
2019-05-19T18:45:04.654Z,77.84
2019-05-19T18:47:31.730Z,77.76
2019-05-19T18:49:58.798Z,77.52
2019-05-19T18:52:25.855Z,77.69
2019-05-19T18:54:52.935Z,77.31
2019-05-19T18:57:20.002Z,77.14
2019-05-19T18:59:47.911Z,77.58
2019-05-19T19:02:15.266Z,77.64
2019-05-19T19:04:42.275Z,77.53
2019-05-19T19:07:09.313Z,77.48
2019-05-19T19:09:36.307Z,77.44
2019-05-19T19:12:03.354Z,77.37
2019-05-19T19:14:30.429Z,77.10
2019-05-19T19:16:57.435Z,77.15
2019-05-19T19:19:24.458Z,77.12
2019-05-19T19:21:51.487Z,76.90
2019-05-19T19:24:18.496Z,76.86
2019-05-19T19:26:45.538Z,77.11
2019-05-19T19:29:12.571Z,76.83
2019-05-19T19:31:47.981Z,76.78
2019-05-19T19:34:08.551Z,76.74
2019-05-19T19:36:35.680Z,76.96
2019-05-19T19:39:04.234Z,76.83
2019-05-19T19:41:31.294Z,76.86
2019-05-19T19:43:58.310Z,76.82
2019-05-19T19:46:25.321Z,76.81
2019-05-19T19:48:52.346Z,77.19
2019-05-19T19:51:19.421Z,77.30
2019-05-19T19:53:46.430Z,77.03
2019-05-19T19:56:13.454Z,76.85
2019-05-19T19:58:40.529Z,76.55
2019-05-19T20:01:07.593Z,76.34
2019-05-19T20:03:39.802Z,76.60
2019-05-19T20:06:04.025Z,76.67
2019-05-19T20:08:31.055Z,76.73
2019-05-19T20:10:58.142Z,76.54
2019-05-19T20:13:25.175Z,76.82
2019-05-19T20:15:52.207Z,76.33
2019-05-19T20:18:19.273Z,76.12
2019-05-19T20:20:46.293Z,76.22
2019-05-19T20:23:13.329Z,76.07
2019-05-19T20:25:40.407Z,75.74
2019-05-19T20:28:07.445Z,75.52
2019-05-19T20:30:36.413Z,75.35
2019-05-19T20:33:03.519Z,75.24
2019-05-19T20:35:31.854Z,75.06
2019-05-19T20:37:58.960Z,75.05
2019-05-19T20:40:26.028Z,75.05
2019-05-19T20:42:53.040Z,74.98
2019-05-19T20:45:20.095Z,74.94
2019-05-19T20:47:47.152Z,74.84
2019-05-19T20:50:14.183Z,74.83
2019-05-19T20:52:41.203Z,74.77
2019-05-19T20:55:08.214Z,74.79
2019-05-19T20:57:35.269Z,74.83
2019-05-19T21:00:02.553Z,74.82
2019-05-19T21:02:29.622Z,74.78
2019-05-19T21:04:56.630Z,74.83
2019-05-19T21:07:23.651Z,74.80
2019-05-19T21:09:50.686Z,74.73
2019-05-19T21:12:17.710Z,74.69
2019-05-19T21:14:44.750Z,74.64
2019-05-19T21:17:11.774Z,74.82
2019-05-19T21:19:38.935Z,74.81
2019-05-19T21:22:05.924Z,74.70
2019-05-19T21:24:32.956Z,74.74
2019-05-19T21:27:00.051Z,74.77
2019-05-19T21:29:27.080Z,74.81
2019-05-19T21:31:54.090Z,74.84
2019-05-19T21:34:21.172Z,74.82
2019-05-19T21:36:48.306Z,74.97
2019-05-19T21:39:15.348Z,74.92
2019-05-19T21:41:42.461Z,74.87
2019-05-19T21:44:09.493Z,74.84
2019-05-19T21:46:36.483Z,74.74
2019-05-19T21:49:03.554Z,74.69
2019-05-19T21:51:30.592Z,74.59
2019-05-19T21:53:57.640Z,74.44
2019-05-19T21:56:24.690Z,74.32
2019-05-19T21:58:51.727Z,74.27
2019-05-19T22:01:23.143Z,74.26
2019-05-19T22:03:47.871Z,74.17
2019-05-19T22:06:15.719Z,74.17
2019-05-19T22:08:42.763Z,74.13
2019-05-19T22:11:09.840Z,74.08
2019-05-19T22:13:36.906Z,73.92
2019-05-19T22:16:13.011Z,73.83
2019-05-19T22:18:32.921Z,73.82
2019-05-19T22:21:00.017Z,74.07
2019-05-19T22:23:27.022Z,74.27
2019-05-19T22:25:54.080Z,74.29
2019-05-19T22:28:21.123Z,74.32
2019-05-19T22:30:48.165Z,74.63
2019-05-19T22:33:15.189Z,74.87
2019-05-19T22:35:42.238Z,75.75
2019-05-19T22:38:09.774Z,75.78
2019-05-19T22:40:36.909Z,75.66
2019-05-19T22:43:03.932Z,75.38
2019-05-19T22:45:31.030Z,75.40
2019-05-19T22:47:58.043Z,75.41
2019-05-19T22:50:25.120Z,75.29
2019-05-19T22:52:52.126Z,75.59
2019-05-19T22:55:19.261Z,76.04
2019-05-19T22:57:46.319Z,75.99
2019-05-19T23:00:15.177Z,76.11
2019-05-19T23:02:42.225Z,76.44
2019-05-19T23:05:09.563Z,76.73
2019-05-19T23:07:36.668Z,76.41
2019-05-19T23:10:04.476Z,76.59
2019-05-19T23:12:31.507Z,76.65
2019-05-19T23:14:58.645Z,76.94
2019-05-19T23:17:25.650Z,77.44
2019-05-19T23:19:52.690Z,77.51
2019-05-19T23:22:19.790Z,77.49
2019-05-19T23:24:46.895Z,77.64
2019-05-19T23:27:13.925Z,77.55
2019-05-19T23:29:40.980Z,77.50
2019-05-19T23:32:08.027Z,77.10
2019-05-19T23:34:35.243Z,77.40
2019-05-19T23:37:02.326Z,77.23
2019-05-19T23:39:29.503Z,77.24
2019-05-19T23:41:56.587Z,77.99
2019-05-19T23:44:23.675Z,77.44
2019-05-19T23:46:50.687Z,77.82
2019-05-19T23:49:17.754Z,77.68
2019-05-19T23:51:44.851Z,77.58
2019-05-19T23:54:11.927Z,77.51
2019-05-19T23:56:38.960Z,77.56
2019-05-19T23:59:06.017Z,77.48
